sensor_id;sensor_type;location;lat;lon;timestamp;P1;durP1;ratioP1;P2;durP2;ratioP2
41705;SDS011;27385;51.096;17.190;2023-04-24T00:00:22;21.40;;;8.20;;
41705;SDS011;27385;51.096;17.190;2023-04-24T00:03:13;18.70;;;7.90;;
41705;SDS011;27385;51.096;17.190;2023-04-24T00:05:44;21.20;;;8.10;;
41705;SDS011;27385;51.096;17.190;2023-04-24T00:08:15;20.50;;;8.30;;
41705;SDS011;27385;51.096;17.190;2023-04-24T00:10:47;21.10;;;8.40;;
41705;SDS011;27385;51.096;17.190;2023-04-24T00:13:18;17.80;;;7.70;;
41705;SDS011;27385;51.096;17.190;2023-04-24T00:15:48;16.60;;;7.70;;
41705;SDS011;27385;51.096;17.190;2023-04-24T00:18:19;20.00;;;8.50;;
41705;SDS011;27385;51.096;17.190;2023-04-24T00:20:50;20.00;;;8.70;;
41705;SDS011;27385;51.096;17.190;2023-04-24T00:23:21;21.00;;;7.40;;
41705;SDS011;27385;51.096;17.190;2023-04-24T00:25:52;18.90;;;8.90;;
41705;SDS011;27385;51.096;17.190;2023-04-24T00:28:23;20.80;;;8.20;;
41705;SDS011;27385;51.096;17.190;2023-04-24T00:30:53;18.30;;;7.70;;
41705;SDS011;27385;51.096;17.190;2023-04-24T00:33:25;19.70;;;8.60;;
41705;SDS011;27385;51.096;17.190;2023-04-24T00:35:55;21.10;;;8.10;;
41705;SDS011;27385;51.096;17.190;2023-04-24T00:38:26;20.00;;;8.60;;
41705;SDS011;27385;51.096;17.190;2023-04-24T00:40:57;19.30;;;8.80;;
41705;SDS011;27385;51.096;17.190;2023-04-24T00:43:28;20.90;;;7.80;;
41705;SDS011;27385;51.096;17.190;2023-04-24T00:45:59;16.60;;;7.00;;
41705;SDS011;27385;51.096;17.190;2023-04-24T00:48:30;19.20;;;8.30;;
41705;SDS011;27385;51.096;17.190;2023-04-24T00:51:02;18.30;;;8.20;;
41705;SDS011;27385;51.096;17.190;2023-04-24T00:53:33;20.70;;;8.90;;
41705;SDS011;27385;51.096;17.190;2023-04-24T00:56:04;18.90;;;8.70;;
41705;SDS011;27385;51.096;17.190;2023-04-24T00:58:36;21.30;;;9.50;;
41705;SDS011;27385;51.096;17.190;2023-04-24T01:01:07;19.30;;;9.40;;
41705;SDS011;27385;51.096;17.190;2023-04-24T01:03:39;25.50;;;9.90;;
41705;SDS011;27385;51.096;17.190;2023-04-24T01:06:10;20.30;;;9.20;;
41705;SDS011;27385;51.096;17.190;2023-04-24T01:08:41;20.00;;;9.70;;
41705;SDS011;27385;51.096;17.190;2023-04-24T01:11:14;17.30;;;8.30;;
41705;SDS011;27385;51.096;17.190;2023-04-24T01:13:46;21.20;;;9.50;;
41705;SDS011;27385;51.096;17.190;2023-04-24T01:16:17;22.30;;;9.20;;
41705;SDS011;27385;51.096;17.190;2023-04-24T01:18:48;19.90;;;9.30;;
41705;SDS011;27385;51.096;17.190;2023-04-24T01:21:19;21.10;;;10.00;;
41705;SDS011;27385;51.096;17.190;2023-04-24T01:23:52;21.00;;;10.10;;
41705;SDS011;27385;51.096;17.190;2023-04-24T01:26:24;22.90;;;10.00;;
41705;SDS011;27385;51.096;17.190;2023-04-24T01:28:54;21.40;;;10.60;;
41705;SDS011;27385;51.096;17.190;2023-04-24T01:31:26;24.30;;;10.40;;
41705;SDS011;27385;51.096;17.190;2023-04-24T01:33:57;22.20;;;10.10;;
41705;SDS011;27385;51.096;17.190;2023-04-24T01:36:28;21.70;;;9.80;;
41705;SDS011;27385;51.096;17.190;2023-04-24T01:39:00;20.60;;;9.50;;
41705;SDS011;27385;51.096;17.190;2023-04-24T01:41:31;23.20;;;10.10;;
41705;SDS011;27385;51.096;17.190;2023-04-24T01:44:02;22.20;;;10.20;;
41705;SDS011;27385;51.096;17.190;2023-04-24T01:46:33;20.00;;;10.20;;
41705;SDS011;27385;51.096;17.190;2023-04-24T01:49:05;20.90;;;10.30;;
41705;SDS011;27385;51.096;17.190;2023-04-24T01:51:36;20.20;;;10.00;;
41705;SDS011;27385;51.096;17.190;2023-04-24T01:54:06;24.90;;;11.80;;
41705;SDS011;27385;51.096;17.190;2023-04-24T01:56:37;21.40;;;11.00;;
41705;SDS011;27385;51.096;17.190;2023-04-24T01:59:11;23.60;;;11.70;;
41705;SDS011;27385;51.096;17.190;2023-04-24T02:01:44;20.60;;;11.10;;
41705;SDS011;27385;51.096;17.190;2023-04-24T02:04:15;23.20;;;12.10;;
41705;SDS011;27385;51.096;17.190;2023-04-24T02:06:46;26.50;;;12.80;;
41705;SDS011;27385;51.096;17.190;2023-04-24T02:09:17;26.00;;;12.30;;
41705;SDS011;27385;51.096;17.190;2023-04-24T02:11:48;26.90;;;12.50;;
41705;SDS011;27385;51.096;17.190;2023-04-24T02:14:19;24.50;;;12.00;;
41705;SDS011;27385;51.096;17.190;2023-04-24T02:16:50;24.30;;;13.30;;
41705;SDS011;27385;51.096;17.190;2023-04-24T02:19:21;26.20;;;13.20;;
41705;SDS011;27385;51.096;17.190;2023-04-24T02:21:51;22.90;;;12.40;;
41705;SDS011;27385;51.096;17.190;2023-04-24T02:24:22;28.50;;;12.50;;
41705;SDS011;27385;51.096;17.190;2023-04-24T02:26:53;21.70;;;11.30;;
41705;SDS011;27385;51.096;17.190;2023-04-24T02:29:26;27.30;;;13.40;;
41705;SDS011;27385;51.096;17.190;2023-04-24T02:31:57;23.30;;;12.10;;
41705;SDS011;27385;51.096;17.190;2023-04-24T02:34:28;24.30;;;12.10;;
41705;SDS011;27385;51.096;17.190;2023-04-24T02:36:58;23.50;;;11.80;;
41705;SDS011;27385;51.096;17.190;2023-04-24T02:39:29;24.30;;;12.50;;
41705;SDS011;27385;51.096;17.190;2023-04-24T02:42:00;29.00;;;12.90;;
41705;SDS011;27385;51.096;17.190;2023-04-24T02:44:31;24.20;;;12.80;;
41705;SDS011;27385;51.096;17.190;2023-04-24T02:47:02;25.80;;;12.60;;
41705;SDS011;27385;51.096;17.190;2023-04-24T02:49:33;24.40;;;12.40;;
41705;SDS011;27385;51.096;17.190;2023-04-24T02:52:04;30.10;;;14.00;;
41705;SDS011;27385;51.096;17.190;2023-04-24T02:54:35;25.20;;;13.40;;
41705;SDS011;27385;51.096;17.190;2023-04-24T02:57:06;23.30;;;11.50;;
41705;SDS011;27385;51.096;17.190;2023-04-24T02:59:37;24.10;;;12.30;;
41705;SDS011;27385;51.096;17.190;2023-04-24T03:02:08;25.50;;;11.60;;
41705;SDS011;27385;51.096;17.190;2023-04-24T03:04:38;25.70;;;12.80;;
41705;SDS011;27385;51.096;17.190;2023-04-24T03:07:10;26.20;;;12.40;;
41705;SDS011;27385;51.096;17.190;2023-04-24T03:09:42;23.00;;;11.70;;
41705;SDS011;27385;51.096;17.190;2023-04-24T03:12:13;25.40;;;11.60;;
41705;SDS011;27385;51.096;17.190;2023-04-24T03:14:45;22.20;;;11.80;;
41705;SDS011;27385;51.096;17.190;2023-04-24T03:17:16;22.00;;;11.00;;
41705;SDS011;27385;51.096;17.190;2023-04-24T03:19:47;26.30;;;12.30;;
41705;SDS011;27385;51.096;17.190;2023-04-24T03:22:18;23.90;;;11.20;;
41705;SDS011;27385;51.096;17.190;2023-04-24T03:24:49;24.90;;;11.10;;
41705;SDS011;27385;51.096;17.190;2023-04-24T03:27:19;25.90;;;11.70;;
41705;SDS011;27385;51.096;17.190;2023-04-24T03:29:51;28.80;;;12.20;;
41705;SDS011;27385;51.096;17.190;2023-04-24T03:32:23;24.30;;;12.20;;
41705;SDS011;27385;51.096;17.190;2023-04-24T03:34:54;20.70;;;10.80;;
41705;SDS011;27385;51.096;17.190;2023-04-24T03:37:24;20.70;;;9.70;;
41705;SDS011;27385;51.096;17.190;2023-04-24T03:39:55;25.80;;;10.30;;
41705;SDS011;27385;51.096;17.190;2023-04-24T03:42:26;24.30;;;11.70;;
41705;SDS011;27385;51.096;17.190;2023-04-24T03:44:57;24.10;;;12.40;;
41705;SDS011;27385;51.096;17.190;2023-04-24T03:47:28;22.30;;;11.80;;
41705;SDS011;27385;51.096;17.190;2023-04-24T03:49:59;24.00;;;11.60;;
41705;SDS011;27385;51.096;17.190;2023-04-24T03:52:30;24.70;;;11.30;;
41705;SDS011;27385;51.096;17.190;2023-04-24T03:55:01;25.00;;;12.10;;
41705;SDS011;27385;51.096;17.190;2023-04-24T03:57:32;21.80;;;10.80;;
41705;SDS011;27385;51.096;17.190;2023-04-24T04:00:03;24.10;;;11.40;;
41705;SDS011;27385;51.096;17.190;2023-04-24T04:02:36;25.80;;;12.00;;
41705;SDS011;27385;51.096;17.190;2023-04-24T04:05:07;23.40;;;11.60;;
41705;SDS011;27385;51.096;17.190;2023-04-24T04:07:38;23.30;;;11.30;;
41705;SDS011;27385;51.096;17.190;2023-04-24T04:10:09;22.70;;;12.10;;
41705;SDS011;27385;51.096;17.190;2023-04-24T04:12:41;22.90;;;10.60;;
41705;SDS011;27385;51.096;17.190;2023-04-24T04:15:12;26.10;;;13.30;;
41705;SDS011;27385;51.096;17.190;2023-04-24T04:17:42;24.80;;;12.40;;
41705;SDS011;27385;51.096;17.190;2023-04-24T04:20:14;33.00;;;12.70;;
41705;SDS011;27385;51.096;17.190;2023-04-24T04:22:44;32.60;;;14.60;;
41705;SDS011;27385;51.096;17.190;2023-04-24T04:25:16;30.00;;;13.90;;
41705;SDS011;27385;51.096;17.190;2023-04-24T04:27:47;28.60;;;13.30;;
41705;SDS011;27385;51.096;17.190;2023-04-24T04:30:18;30.90;;;13.00;;
41705;SDS011;27385;51.096;17.190;2023-04-24T04:32:51;28.00;;;12.50;;
41705;SDS011;27385;51.096;17.190;2023-04-24T04:35:22;24.60;;;11.20;;
41705;SDS011;27385;51.096;17.190;2023-04-24T04:37:53;26.40;;;12.70;;
41705;SDS011;27385;51.096;17.190;2023-04-24T04:40:26;28.30;;;13.00;;
41705;SDS011;27385;51.096;17.190;2023-04-24T04:42:57;26.50;;;11.70;;
41705;SDS011;27385;51.096;17.190;2023-04-24T04:45:28;22.70;;;11.00;;
41705;SDS011;27385;51.096;17.190;2023-04-24T04:48:00;23.20;;;10.80;;
41705;SDS011;27385;51.096;17.190;2023-04-24T04:50:31;24.50;;;11.60;;
41705;SDS011;27385;51.096;17.190;2023-04-24T04:53:02;27.00;;;12.40;;
41705;SDS011;27385;51.096;17.190;2023-04-24T04:55:33;27.90;;;11.80;;
41705;SDS011;27385;51.096;17.190;2023-04-24T04:58:04;26.30;;;12.60;;
41705;SDS011;27385;51.096;17.190;2023-04-24T05:00:35;24.80;;;11.20;;
41705;SDS011;27385;51.096;17.190;2023-04-24T05:03:06;28.40;;;12.50;;
41705;SDS011;27385;51.096;17.190;2023-04-24T05:05:37;30.20;;;13.50;;
41705;SDS011;27385;51.096;17.190;2023-04-24T05:08:09;33.40;;;14.30;;
41705;SDS011;27385;51.096;17.190;2023-04-24T05:10:40;30.50;;;13.80;;
41705;SDS011;27385;51.096;17.190;2023-04-24T05:13:11;25.50;;;12.20;;
41705;SDS011;27385;51.096;17.190;2023-04-24T05:15:43;23.70;;;11.30;;
41705;SDS011;27385;51.096;17.190;2023-04-24T05:18:14;20.70;;;10.30;;
41705;SDS011;27385;51.096;17.190;2023-04-24T05:20:44;24.20;;;10.30;;
41705;SDS011;27385;51.096;17.190;2023-04-24T05:23:15;26.90;;;10.20;;
41705;SDS011;27385;51.096;17.190;2023-04-24T05:25:46;21.40;;;11.30;;
41705;SDS011;27385;51.096;17.190;2023-04-24T05:28:17;29.70;;;11.80;;
41705;SDS011;27385;51.096;17.190;2023-04-24T05:30:48;23.30;;;12.20;;
41705;SDS011;27385;51.096;17.190;2023-04-24T05:33:19;24.10;;;12.40;;
41705;SDS011;27385;51.096;17.190;2023-04-24T05:35:51;28.20;;;12.40;;
41705;SDS011;27385;51.096;17.190;2023-04-24T05:38:21;22.80;;;11.70;;
41705;SDS011;27385;51.096;17.190;2023-04-24T05:40:52;24.50;;;11.10;;
41705;SDS011;27385;51.096;17.190;2023-04-24T05:43:23;24.40;;;11.20;;
41705;SDS011;27385;51.096;17.190;2023-04-24T05:45:54;24.10;;;11.40;;
41705;SDS011;27385;51.096;17.190;2023-04-24T05:48:25;26.80;;;10.80;;
41705;SDS011;27385;51.096;17.190;2023-04-24T05:50:56;27.80;;;11.40;;
41705;SDS011;27385;51.096;17.190;2023-04-24T05:53:27;20.90;;;10.40;;
41705;SDS011;27385;51.096;17.190;2023-04-24T05:55:58;24.60;;;11.70;;
41705;SDS011;27385;51.096;17.190;2023-04-24T05:58:28;21.40;;;9.00;;
41705;SDS011;27385;51.096;17.190;2023-04-24T06:01:00;22.60;;;9.30;;
41705;SDS011;27385;51.096;17.190;2023-04-24T06:03:31;18.80;;;7.70;;
41705;SDS011;27385;51.096;17.190;2023-04-24T06:06:02;20.00;;;7.30;;
41705;SDS011;27385;51.096;17.190;2023-04-24T06:08:34;15.80;;;6.90;;
41705;SDS011;27385;51.096;17.190;2023-04-24T06:11:05;20.60;;;7.10;;
41705;SDS011;27385;51.096;17.190;2023-04-24T06:13:36;22.00;;;6.70;;
41705;SDS011;27385;51.096;17.190;2023-04-24T06:16:06;17.60;;;6.20;;
41705;SDS011;27385;51.096;17.190;2023-04-24T06:18:37;18.00;;;6.50;;
41705;SDS011;27385;51.096;17.190;2023-04-24T06:21:08;19.50;;;5.90;;
41705;SDS011;27385;51.096;17.190;2023-04-24T06:23:39;16.10;;;6.20;;
41705;SDS011;27385;51.096;17.190;2023-04-24T06:26:10;21.10;;;6.30;;
41705;SDS011;27385;51.096;17.190;2023-04-24T06:28:41;15.40;;;5.40;;
41705;SDS011;27385;51.096;17.190;2023-04-24T06:31:11;13.70;;;3.50;;
41705;SDS011;27385;51.096;17.190;2023-04-24T06:33:42;13.90;;;4.50;;
41705;SDS011;27385;51.096;17.190;2023-04-24T06:36:13;16.60;;;5.00;;
41705;SDS011;27385;51.096;17.190;2023-04-24T06:38:44;11.60;;;3.80;;
41705;SDS011;27385;51.096;17.190;2023-04-24T06:41:15;12.90;;;3.90;;
41705;SDS011;27385;51.096;17.190;2023-04-24T06:43:46;13.60;;;4.40;;
41705;SDS011;27385;51.096;17.190;2023-04-24T06:46:17;14.20;;;4.30;;
41705;SDS011;27385;51.096;17.190;2023-04-24T06:48:50;13.60;;;4.50;;
41705;SDS011;27385;51.096;17.190;2023-04-24T06:51:24;11.50;;;4.20;;
41705;SDS011;27385;51.096;17.190;2023-04-24T06:53:55;12.10;;;3.60;;
41705;SDS011;27385;51.096;17.190;2023-04-24T06:56:26;12.80;;;3.80;;
41705;SDS011;27385;51.096;17.190;2023-04-24T06:58:57;13.30;;;4.20;;
41705;SDS011;27385;51.096;17.190;2023-04-24T07:01:28;15.60;;;4.90;;
41705;SDS011;27385;51.096;17.190;2023-04-24T07:03:59;11.80;;;4.30;;
41705;SDS011;27385;51.096;17.190;2023-04-24T07:06:30;11.80;;;4.10;;
41705;SDS011;27385;51.096;17.190;2023-04-24T07:09:01;14.40;;;5.10;;
41705;SDS011;27385;51.096;17.190;2023-04-24T07:11:32;13.20;;;4.80;;
41705;SDS011;27385;51.096;17.190;2023-04-24T07:14:03;12.20;;;4.20;;
41705;SDS011;27385;51.096;17.190;2023-04-24T07:16:34;14.70;;;5.10;;
41705;SDS011;27385;51.096;17.190;2023-04-24T07:19:04;15.40;;;4.60;;
41705;SDS011;27385;51.096;17.190;2023-04-24T07:21:35;16.40;;;5.40;;
41705;SDS011;27385;51.096;17.190;2023-04-24T07:24:06;13.80;;;5.40;;
41705;SDS011;27385;51.096;17.190;2023-04-24T07:26:39;13.20;;;4.80;;
41705;SDS011;27385;51.096;17.190;2023-04-24T07:29:10;11.10;;;3.80;;
41705;SDS011;27385;51.096;17.190;2023-04-24T07:31:41;14.20;;;4.50;;
41705;SDS011;27385;51.096;17.190;2023-04-24T07:34:12;12.60;;;4.40;;
41705;SDS011;27385;51.096;17.190;2023-04-24T07:36:43;9.30;;;3.40;;
41705;SDS011;27385;51.096;17.190;2023-04-24T07:39:15;11.40;;;4.00;;
41705;SDS011;27385;51.096;17.190;2023-04-24T07:41:46;14.20;;;3.30;;
41705;SDS011;27385;51.096;17.190;2023-04-24T07:44:17;10.10;;;3.20;;
41705;SDS011;27385;51.096;17.190;2023-04-24T07:46:48;9.90;;;2.60;;
41705;SDS011;27385;51.096;17.190;2023-04-24T07:49:18;13.30;;;3.60;;
41705;SDS011;27385;51.096;17.190;2023-04-24T07:51:50;13.30;;;3.60;;
41705;SDS011;27385;51.096;17.190;2023-04-24T07:54:21;14.20;;;3.80;;
41705;SDS011;27385;51.096;17.190;2023-04-24T07:56:52;12.90;;;3.40;;
41705;SDS011;27385;51.096;17.190;2023-04-24T07:59:23;11.10;;;3.40;;
41705;SDS011;27385;51.096;17.190;2023-04-24T08:01:54;11.60;;;3.20;;
41705;SDS011;27385;51.096;17.190;2023-04-24T08:04:25;13.10;;;3.10;;
41705;SDS011;27385;51.096;17.190;2023-04-24T08:06:55;9.40;;;3.20;;
41705;SDS011;27385;51.096;17.190;2023-04-24T08:09:26;11.30;;;3.60;;
41705;SDS011;27385;51.096;17.190;2023-04-24T08:11:58;13.40;;;3.30;;
41705;SDS011;27385;51.096;17.190;2023-04-24T08:14:29;12.40;;;3.90;;
41705;SDS011;27385;51.096;17.190;2023-04-24T08:17:00;15.20;;;3.50;;
41705;SDS011;27385;51.096;17.190;2023-04-24T08:19:31;12.60;;;3.10;;
41705;SDS011;27385;51.096;17.190;2023-04-24T08:22:02;8.50;;;2.80;;
41705;SDS011;27385;51.096;17.190;2023-04-24T08:24:33;15.20;;;3.30;;
41705;SDS011;27385;51.096;17.190;2023-04-24T08:27:04;11.00;;;3.20;;
41705;SDS011;27385;51.096;17.190;2023-04-24T08:29:35;9.30;;;3.90;;
41705;SDS011;27385;51.096;17.190;2023-04-24T08:32:07;12.00;;;4.10;;
41705;SDS011;27385;51.096;17.190;2023-04-24T08:34:37;14.80;;;4.30;;
41705;SDS011;27385;51.096;17.190;2023-04-24T08:37:08;13.50;;;4.50;;
41705;SDS011;27385;51.096;17.190;2023-04-24T08:39:40;12.40;;;4.70;;
41705;SDS011;27385;51.096;17.190;2023-04-24T08:42:11;14.50;;;7.00;;
41705;SDS011;27385;51.096;17.190;2023-04-24T08:44:44;14.20;;;6.00;;
41705;SDS011;27385;51.096;17.190;2023-04-24T08:47:15;13.10;;;5.40;;
41705;SDS011;27385;51.096;17.190;2023-04-24T08:49:46;15.60;;;4.60;;
41705;SDS011;27385;51.096;17.190;2023-04-24T08:52:19;12.80;;;5.20;;
41705;SDS011;27385;51.096;17.190;2023-04-24T08:54:50;11.60;;;4.80;;
41705;SDS011;27385;51.096;17.190;2023-04-24T08:57:22;12.50;;;4.40;;
41705;SDS011;27385;51.096;17.190;2023-04-24T08:59:53;14.80;;;5.60;;
41705;SDS011;27385;51.096;17.190;2023-04-24T09:02:26;21.10;;;6.70;;
41705;SDS011;27385;51.096;17.190;2023-04-24T09:04:57;14.00;;;6.30;;
41705;SDS011;27385;51.096;17.190;2023-04-24T09:07:29;22.30;;;8.10;;
41705;SDS011;27385;51.096;17.190;2023-04-24T09:10:03;16.90;;;5.90;;
41705;SDS011;27385;51.096;17.190;2023-04-24T09:12:35;13.10;;;5.90;;
41705;SDS011;27385;51.096;17.190;2023-04-24T09:15:07;10.60;;;4.50;;
41705;SDS011;27385;51.096;17.190;2023-04-24T09:17:40;16.60;;;5.90;;
41705;SDS011;27385;51.096;17.190;2023-04-24T09:20:12;12.80;;;5.80;;
41705;SDS011;27385;51.096;17.190;2023-04-24T09:22:45;18.00;;;7.10;;
41705;SDS011;27385;51.096;17.190;2023-04-24T09:25:16;13.80;;;6.50;;
41705;SDS011;27385;51.096;17.190;2023-04-24T09:27:48;15.50;;;5.30;;
41705;SDS011;27385;51.096;17.190;2023-04-24T09:30:22;14.40;;;5.30;;
41705;SDS011;27385;51.096;17.190;2023-04-24T09:33:00;12.90;;;4.00;;
41705;SDS011;27385;51.096;17.190;2023-04-24T09:35:42;13.40;;;5.10;;
41705;SDS011;27385;51.096;17.190;2023-04-24T09:38:17;12.40;;;4.30;;
41705;SDS011;27385;51.096;17.190;2023-04-24T09:40:56;12.80;;;4.00;;
41705;SDS011;27385;51.096;17.190;2023-04-24T09:43:31;12.60;;;4.70;;
41705;SDS011;27385;51.096;17.190;2023-04-24T09:46:05;13.40;;;4.30;;
41705;SDS011;27385;51.096;17.190;2023-04-24T09:48:37;12.20;;;4.00;;
41705;SDS011;27385;51.096;17.190;2023-04-24T09:51:08;11.70;;;4.50;;
41705;SDS011;27385;51.096;17.190;2023-04-24T09:53:46;10.80;;;4.20;;
41705;SDS011;27385;51.096;17.190;2023-04-24T09:56:21;12.80;;;4.60;;
41705;SDS011;27385;51.096;17.190;2023-04-24T10:01:44;12.60;;;5.20;;
41705;SDS011;27385;51.096;17.190;2023-04-24T10:04:18;12.70;;;4.50;;
41705;SDS011;27385;51.096;17.190;2023-04-24T10:06:51;8.60;;;3.40;;
41705;SDS011;27385;51.096;17.190;2023-04-24T10:09:25;9.60;;;3.70;;
41705;SDS011;27385;51.096;17.190;2023-04-24T10:11:56;10.70;;;3.90;;
41705;SDS011;27385;51.096;17.190;2023-04-24T10:14:29;11.70;;;3.60;;
41705;SDS011;27385;51.096;17.190;2023-04-24T10:17:01;10.80;;;3.80;;
41705;SDS011;27385;51.096;17.190;2023-04-24T10:19:33;9.60;;;3.20;;
41705;SDS011;27385;51.096;17.190;2023-04-24T10:22:06;8.60;;;3.50;;
41705;SDS011;27385;51.096;17.190;2023-04-24T10:24:38;9.20;;;2.90;;
41705;SDS011;27385;51.096;17.190;2023-04-24T10:27:09;9.30;;;3.10;;
41705;SDS011;27385;51.096;17.190;2023-04-24T10:29:43;13.00;;;3.70;;
41705;SDS011;27385;51.096;17.190;2023-04-24T10:32:14;10.90;;;3.50;;
41705;SDS011;27385;51.096;17.190;2023-04-24T10:34:45;9.60;;;3.30;;
41705;SDS011;27385;51.096;17.190;2023-04-24T10:37:16;10.20;;;3.00;;
41705;SDS011;27385;51.096;17.190;2023-04-24T10:39:48;11.30;;;4.10;;
41705;SDS011;27385;51.096;17.190;2023-04-24T10:42:22;13.60;;;4.30;;
41705;SDS011;27385;51.096;17.190;2023-04-24T10:44:56;12.20;;;4.50;;
41705;SDS011;27385;51.096;17.190;2023-04-24T10:47:30;8.90;;;3.50;;
41705;SDS011;27385;51.096;17.190;2023-04-24T10:50:10;10.00;;;3.60;;
41705;SDS011;27385;51.096;17.190;2023-04-24T10:52:45;11.00;;;4.40;;
41705;SDS011;27385;51.096;17.190;2023-04-24T10:55:29;15.00;;;5.00;;
41705;SDS011;27385;51.096;17.190;2023-04-24T10:58:10;15.20;;;4.70;;
41705;SDS011;27385;51.096;17.190;2023-04-24T11:00:43;11.80;;;4.40;;
41705;SDS011;27385;51.096;17.190;2023-04-24T11:03:25;13.60;;;4.70;;
41705;SDS011;27385;51.096;17.190;2023-04-24T11:05:58;19.40;;;5.20;;
41705;SDS011;27385;51.096;17.190;2023-04-24T11:08:37;13.70;;;5.50;;
41705;SDS011;27385;51.096;17.190;2023-04-24T11:11:12;14.80;;;4.40;;
41705;SDS011;27385;51.096;17.190;2023-04-24T11:14:04;12.50;;;4.60;;
41705;SDS011;27385;51.096;17.190;2023-04-24T11:16:38;12.60;;;4.60;;
41705;SDS011;27385;51.096;17.190;2023-04-24T11:19:21;14.30;;;3.90;;
41705;SDS011;27385;51.096;17.190;2023-04-24T11:21:57;12.90;;;4.20;;
41705;SDS011;27385;51.096;17.190;2023-04-24T11:24:31;11.40;;;3.40;;
41705;SDS011;27385;51.096;17.190;2023-04-24T11:27:11;9.60;;;4.00;;
41705;SDS011;27385;51.096;17.190;2023-04-24T11:29:46;11.30;;;3.60;;
41705;SDS011;27385;51.096;17.190;2023-04-24T11:32:19;10.30;;;3.10;;
41705;SDS011;27385;51.096;17.190;2023-04-24T11:34:55;10.80;;;3.00;;
41705;SDS011;27385;51.096;17.190;2023-04-24T11:37:28;9.20;;;3.30;;
41705;SDS011;27385;51.096;17.190;2023-04-24T11:40:04;13.40;;;3.10;;
41705;SDS011;27385;51.096;17.190;2023-04-24T11:42:37;9.30;;;3.00;;
41705;SDS011;27385;51.096;17.190;2023-04-24T11:45:11;10.90;;;3.30;;
41705;SDS011;27385;51.096;17.190;2023-04-24T11:47:43;10.20;;;3.20;;
41705;SDS011;27385;51.096;17.190;2023-04-24T11:50:16;13.60;;;3.60;;
41705;SDS011;27385;51.096;17.190;2023-04-24T11:52:48;10.10;;;2.70;;
41705;SDS011;27385;51.096;17.190;2023-04-24T11:55:24;11.80;;;3.30;;
41705;SDS011;27385;51.096;17.190;2023-04-24T11:57:57;12.30;;;3.80;;
41705;SDS011;27385;51.096;17.190;2023-04-24T12:00:30;9.90;;;3.40;;
41705;SDS011;27385;51.096;17.190;2023-04-24T12:03:05;13.20;;;3.50;;
41705;SDS011;27385;51.096;17.190;2023-04-24T12:05:37;10.90;;;3.50;;
41705;SDS011;27385;51.096;17.190;2023-04-24T12:08:08;12.10;;;3.60;;
41705;SDS011;27385;51.096;17.190;2023-04-24T12:10:40;8.30;;;3.10;;
41705;SDS011;27385;51.096;17.190;2023-04-24T12:13:11;9.50;;;3.40;;
41705;SDS011;27385;51.096;17.190;2023-04-24T12:15:42;10.30;;;3.20;;
41705;SDS011;27385;51.096;17.190;2023-04-24T12:18:13;10.30;;;3.70;;
41705;SDS011;27385;51.096;17.190;2023-04-24T12:20:45;12.80;;;3.90;;
41705;SDS011;27385;51.096;17.190;2023-04-24T12:23:16;12.10;;;4.10;;
41705;SDS011;27385;51.096;17.190;2023-04-24T12:26:10;9.40;;;4.00;;
41705;SDS011;27385;51.096;17.190;2023-04-24T12:28:41;11.70;;;3.60;;
41705;SDS011;27385;51.096;17.190;2023-04-24T12:31:12;11.00;;;3.70;;
41705;SDS011;27385;51.096;17.190;2023-04-24T12:33:43;10.70;;;4.00;;
41705;SDS011;27385;51.096;17.190;2023-04-24T12:36:14;15.60;;;4.50;;
41705;SDS011;27385;51.096;17.190;2023-04-24T12:38:45;11.70;;;4.10;;
41705;SDS011;27385;51.096;17.190;2023-04-24T12:41:21;15.60;;;4.10;;
41705;SDS011;27385;51.096;17.190;2023-04-24T12:43:52;10.00;;;3.60;;
41705;SDS011;27385;51.096;17.190;2023-04-24T12:46:24;12.80;;;3.80;;
41705;SDS011;27385;51.096;17.190;2023-04-24T12:48:55;18.70;;;5.40;;
41705;SDS011;27385;51.096;17.190;2023-04-24T12:51:26;24.20;;;5.30;;
41705;SDS011;27385;51.096;17.190;2023-04-24T12:53:57;18.50;;;5.30;;
41705;SDS011;27385;51.096;17.190;2023-04-24T12:56:28;19.40;;;5.10;;
41705;SDS011;27385;51.096;17.190;2023-04-24T12:59:00;28.00;;;5.10;;
41705;SDS011;27385;51.096;17.190;2023-04-24T13:01:31;16.10;;;4.70;;
41705;SDS011;27385;51.096;17.190;2023-04-24T13:04:02;16.90;;;4.60;;
41705;SDS011;27385;51.096;17.190;2023-04-24T13:06:33;20.70;;;5.20;;
41705;SDS011;27385;51.096;17.190;2023-04-24T13:09:04;13.00;;;5.10;;
41705;SDS011;27385;51.096;17.190;2023-04-24T13:11:35;13.70;;;5.30;;
41705;SDS011;27385;51.096;17.190;2023-04-24T13:14:06;12.10;;;4.40;;
41705;SDS011;27385;51.096;17.190;2023-04-24T13:16:37;14.70;;;5.60;;
41705;SDS011;27385;51.096;17.190;2023-04-24T13:19:08;16.20;;;5.50;;
41705;SDS011;27385;51.096;17.190;2023-04-24T13:21:39;15.50;;;5.30;;
41705;SDS011;27385;51.096;17.190;2023-04-24T13:24:10;13.90;;;5.60;;
41705;SDS011;27385;51.096;17.190;2023-04-24T13:26:41;14.30;;;5.20;;
41705;SDS011;27385;51.096;17.190;2023-04-24T13:29:12;14.40;;;6.00;;
41705;SDS011;27385;51.096;17.190;2023-04-24T13:31:43;17.20;;;6.10;;
41705;SDS011;27385;51.096;17.190;2023-04-24T13:34:14;16.10;;;5.60;;
41705;SDS011;27385;51.096;17.190;2023-04-24T13:36:46;14.40;;;5.50;;
41705;SDS011;27385;51.096;17.190;2023-04-24T13:39:17;19.60;;;10.10;;
41705;SDS011;27385;51.096;17.190;2023-04-24T13:41:48;14.80;;;6.60;;
41705;SDS011;27385;51.096;17.190;2023-04-24T13:44:19;17.40;;;6.70;;
41705;SDS011;27385;51.096;17.190;2023-04-24T13:46:52;14.50;;;6.20;;
41705;SDS011;27385;51.096;17.190;2023-04-24T13:49:24;16.20;;;6.00;;
41705;SDS011;27385;51.096;17.190;2023-04-24T13:51:55;14.30;;;4.10;;
41705;SDS011;27385;51.096;17.190;2023-04-24T13:54:26;6.90;;;1.60;;
41705;SDS011;27385;51.096;17.190;2023-04-24T13:56:57;5.20;;;1.20;;
41705;SDS011;27385;51.096;17.190;2023-04-24T13:59:30;5.80;;;1.20;;
41705;SDS011;27385;51.096;17.190;2023-04-24T14:02:01;6.10;;;1.20;;
41705;SDS011;27385;51.096;17.190;2023-04-24T14:04:32;5.50;;;1.30;;
41705;SDS011;27385;51.096;17.190;2023-04-24T14:07:03;7.10;;;1.10;;
41705;SDS011;27385;51.096;17.190;2023-04-24T14:09:35;6.30;;;1.30;;
41705;SDS011;27385;51.096;17.190;2023-04-24T14:12:06;9.40;;;1.60;;
41705;SDS011;27385;51.096;17.190;2023-04-24T14:14:37;5.90;;;0.90;;
41705;SDS011;27385;51.096;17.190;2023-04-24T14:17:08;6.00;;;1.20;;
41705;SDS011;27385;51.096;17.190;2023-04-24T14:19:39;10.30;;;2.80;;
41705;SDS011;27385;51.096;17.190;2023-04-24T14:22:10;7.10;;;1.40;;
41705;SDS011;27385;51.096;17.190;2023-04-24T14:24:41;5.30;;;0.90;;
41705;SDS011;27385;51.096;17.190;2023-04-24T14:27:12;6.60;;;0.80;;
41705;SDS011;27385;51.096;17.190;2023-04-24T14:29:43;6.20;;;0.90;;
41705;SDS011;27385;51.096;17.190;2023-04-24T14:32:14;5.00;;;0.70;;
41705;SDS011;27385;51.096;17.190;2023-04-24T14:34:45;4.50;;;0.90;;
41705;SDS011;27385;51.096;17.190;2023-04-24T14:37:16;5.20;;;0.80;;
41705;SDS011;27385;51.096;17.190;2023-04-24T14:39:48;4.00;;;0.50;;
41705;SDS011;27385;51.096;17.190;2023-04-24T14:42:19;6.10;;;0.50;;
41705;SDS011;27385;51.096;17.190;2023-04-24T14:44:51;2.80;;;0.40;;
41705;SDS011;27385;51.096;17.190;2023-04-24T14:47:22;4.90;;;0.50;;